Terminal Aerodrome Forecast
Issued by NWS

Home | Current Version | Previous Version | Graphics & Text | Print | Product List | Glossary On
Versions: 1 2 3 4 5 6 7 8 9 10 11 12 13 14 15 16 17 18 19 20 21 22 23 24
000
FTUS45 KGGW 242320
TAFGDV
TAF
KGDV 242320Z 2500/2524 16009KT P6SM FEW210
     FM250600 16011KT P6SM SCT170 WS020/18040KT
     FM251000 17010KT P6SM SCT140
     FM251800 31007KT P6SM BKN070
     FM252300 33008KT P6SM -SHRA OVC060=

USA.gov is the U.S. government's official web portal to all federal, state and local government web resources and services.